Time;durP1;ratioP1;P1;durP2;ratioP2;P2;SDS_P1;SDS_P2;PMS_P1;PMS_P2;Temp;Humidity;BMP_temperature;BMP_pressure;BME280_temperature;BME280_humidity;BME280_pressure;Samples;Min_cycle;Max_cycle;Signal;HPM_P1;HPM_P2
2023/10/08 00:00:46;;;;;;;;;;;;;;;21.35;52.40;102188.88;4956690;28;123507;-79
2023/10/08 00:03:14;;;;;;;;;;;;;;;21.33;52.42;102185.44;4937664;28;115070;-79
2023/10/08 00:05:41;;;;;;;;;;;;;;;21.30;52.49;102185.63;4948861;28;114604;-80
2023/10/08 00:08:11;;;;;;;;;;;;;;;21.28;52.48;102187.56;4966938;28;123333;-80
2023/10/08 00:10:42;;;;;;;;;;;;;;;21.26;52.45;102184.13;4935915;28;125322;-79
2023/10/08 00:13:10;;;;;;;;;;;;;;;21.23;52.42;102189.72;4941043;28;115232;-78
2023/10/08 00:15:37;;;;;;;;;;;;;;;21.20;52.50;102191.66;4933238;28;112582;-79
2023/10/08 00:18:07;;;;;;;;;;;;;;;21.19;52.47;102195.31;4948766;28;124816;-79
2023/10/08 00:20:42;;;;;;;;;;;;;;;21.18;52.40;102198.97;4932087;28;124344;-79
2023/10/08 00:23:10;;;;;;;;;;;;;;;21.16;52.43;102206.31;4936629;28;114483;-79
2023/10/08 00:25:40;;;;;;;;;;;;;;;21.15;52.49;102198.31;4946405;28;114326;-79
2023/10/08 00:28:10;;;;;;;;;;;;;;;21.13;52.39;102192.19;4946711;28;125338;-79
2023/10/08 00:30:41;;;;;;;;;;;;;;;21.10;52.38;102190.56;4949580;28;126998;-79
2023/10/08 00:33:09;;;;;;;;;;;;;;;21.07;52.44;102206.94;4945923;28;114692;-79
2023/10/08 00:35:41;;;;;;;;;;;;;;;21.05;52.48;102195.41;4940694;28;111951;-80
2023/10/08 00:38:14;;;;;;;;;;;;;;;21.02;52.31;102192.94;4937457;28;125037;-79
2023/10/08 00:40:45;;;;;;;;;;;;;;;20.99;52.49;102209.28;4928533;28;124146;-79
2023/10/08 00:43:28;;;;;;;;;;;;;;;20.97;52.46;102200.44;4938008;28;114972;-80
2023/10/08 00:45:58;;;;;;;;;;;;;;;20.93;52.29;102204.31;4922385;28;112869;-79
2023/10/08 00:48:29;;;;;;;;;;;;;;;20.89;52.53;102213.53;4933813;28;123818;-80
2023/10/08 00:51:10;;;;;;;;;;;;;;;20.87;52.56;102220.88;4937441;28;123637;-80
2023/10/08 00:53:39;;;;;;;;;;;;;;;20.83;52.51;102208.59;4916265;28;114969;-80
2023/10/08 00:56:16;;;;;;;;;;;;;;;20.79;52.43;102203.41;4934978;28;114429;-80
2023/10/08 00:58:52;;;;;;;;;;;;;;;20.76;52.54;102217.06;4933002;28;123908;-79
2023/10/08 01:01:22;;;;;;;;;;;;;;;20.75;52.56;102218.03;4931775;28;125151;-79
2023/10/08 01:03:49;;;;;;;;;;;;;;;20.72;52.51;102223.63;4933028;28;114045;-79
2023/10/08 01:06:21;;;;;;;;;;;;;;;20.68;52.40;102216.72;4940391;28;114397;-79
2023/10/08 01:08:52;;;;;;;;;;;;;;;20.65;52.74;102211.53;4937383;28;123794;-80
2023/10/08 01:11:43;;;;;;;;;;;;;;;20.62;52.59;102206.34;4932918;28;124380;-80
2023/10/08 01:14:12;;;;;;;;;;;;;;;20.59;52.64;102201.16;4939858;28;113813;-78
2023/10/08 01:16:41;;;;;;;;;;;;;;;20.56;52.52;102206.72;4941210;28;114074;-80
2023/10/08 01:19:13;;;;;;;;;;;;;;;20.54;52.66;102197.88;4951543;28;123949;-79
2023/10/08 01:21:40;;;;;;;;;;;;;;;20.51;52.59;102196.28;4924391;28;126594;-79
2023/10/08 01:24:07;;;;;;;;;;;;;;;20.51;52.54;102195.38;4942946;28;114877;-79
2023/10/08 01:26:38;;;;;;;;;;;;;;;20.47;52.71;102196.56;4934495;28;112662;-79
2023/10/08 01:29:11;;;;;;;;;;;;;;;20.46;52.64;102195.69;4918652;28;125518;-79
2023/10/08 01:31:40;;;;;;;;;;;;;;;20.42;52.69;102188.81;4951253;28;123209;-79
2023/10/08 01:34:07;;;;;;;;;;;;;;;20.39;52.75;102195.22;4934249;28;115880;-79
2023/10/08 01:36:36;;;;;;;;;;;;;;;20.37;52.76;102181.00;4951475;28;113748;-80
2023/10/08 01:39:03;;;;;;;;;;;;;;;20.35;52.72;102176.69;4935076;28;121573;-80
2023/10/08 01:41:30;;;;;;;;;;;;;;;20.33;52.76;102174.09;4949782;28;124670;-80
2023/10/08 01:44:00;;;;;;;;;;;;;;;20.30;52.69;102179.66;4935248;28;115491;-79
2023/10/08 01:46:27;;;;;;;;;;;;;;;20.29;52.78;102191.41;4949321;28;115502;-80
2023/10/08 01:49:06;;;;;;;;;;;;;;;20.27;52.72;102198.72;4950573;28;125900;-80
2023/10/08 01:51:46;;;;;;;;;;;;;;;20.24;52.67;102198.91;4945037;28;124568;-79
2023/10/08 01:54:17;;;;;;;;;;;;;;;20.23;52.82;102195.38;4934160;28;115273;-79
2023/10/08 01:56:45;;;;;;;;;;;;;;;20.22;52.83;102187.38;4939361;28;114829;-79
2023/10/08 01:59:13;;;;;;;;;;;;;;;20.21;52.79;102201.78;4944263;28;125433;-79
2023/10/08 02:01:42;;;;;;;;;;;;;;;20.20;52.79;102205.47;4932193;28;125398;-80
2023/10/08 02:04:12;;;;;;;;;;;;;;;20.18;52.90;102210.94;4951693;28;113982;-80
2023/10/08 02:06:39;;;;;;;;;;;;;;;20.16;52.86;102212.00;4950651;28;115734;-80
2023/10/08 02:09:09;;;;;;;;;;;;;;;20.14;52.83;102213.94;4938746;28;124429;-79
2023/10/08 02:11:44;;;;;;;;;;;;;;;20.14;52.94;102205.84;4949700;28;124859;-81
2023/10/08 02:14:12;;;;;;;;;;;;;;;20.12;52.75;102197.03;4949548;28;115266;-81
2023/10/08 02:16:39;;;;;;;;;;;;;;;20.09;52.78;102190.00;4952058;28;113754;-80
2023/10/08 02:19:06;;;;;;;;;;;;;;;20.07;52.79;102193.75;4950756;28;125827;-81
2023/10/08 02:21:33;;;;;;;;;;;;;;;20.05;52.88;102198.38;4950649;28;124063;-81
2023/10/08 02:24:03;;;;;;;;;;;;;;;20.02;52.94;102229.00;4944102;28;115807;-80
2023/10/08 02:26:30;;;;;;;;;;;;;;;19.99;52.95;102224.69;4950206;28;114816;-80
2023/10/08 02:28:59;;;;;;;;;;;;;;;19.99;52.76;102218.44;4946430;28;124637;-80
2023/10/08 02:31:27;;;;;;;;;;;;;;;19.96;52.81;102219.50;4936703;28;125018;-80
2023/10/08 02:33:55;;;;;;;;;;;;;;;19.93;52.95;102214.31;4951536;28;115168;-81
2023/10/08 02:36:22;;;;;;;;;;;;;;;19.93;52.97;102222.38;4951601;28;114776;-81
2023/10/08 02:38:49;;;;;;;;;;;;;;;19.93;52.93;102226.88;4954737;28;124684;-80
2023/10/08 02:41:17;;;;;;;;;;;;;;;19.92;53.03;102239.47;4942863;28;124793;-80
2023/10/08 02:43:45;;;;;;;;;;;;;;;19.92;52.90;102236.78;4949872;28;115478;-81
2023/10/08 02:46:15;;;;;;;;;;;;;;;19.91;52.96;102237.75;4932600;28;114675;-79
2023/10/08 02:48:42;;;;;;;;;;;;;;;19.90;52.89;102236.00;4938961;28;125172;-81
2023/10/08 02:51:15;;;;;;;;;;;;;;;19.90;53.04;102246.78;4949789;28;124187;-79
2023/10/08 02:53:43;;;;;;;;;;;;;;;19.89;52.92;102255.81;4956031;28;114590;-80
2023/10/08 02:56:14;;;;;;;;;;;;;;;19.85;52.85;102259.63;4947923;28;113908;-80
2023/10/08 02:58:43;;;;;;;;;;;;;;;19.83;52.87;102266.94;4964300;28;126396;-80
2023/10/08 03:01:14;;;;;;;;;;;;;;;19.81;52.97;102263.47;4932763;28;122852;-80
2023/10/08 03:03:42;;;;;;;;;;;;;;;19.81;52.98;102263.47;4945950;28;114928;-79
2023/10/08 03:06:14;;;;;;;;;;;;;;;19.81;52.94;102252.72;4949126;28;112773;-81
2023/10/08 03:08:41;;;;;;;;;;;;;;;19.80;52.82;102246.47;4944218;28;124968;-80
2023/10/08 03:11:16;;;;;;;;;;;;;;;19.80;52.93;102245.63;4943110;28;124011;-81
2023/10/08 03:13:46;;;;;;;;;;;;;;;19.81;53.07;102250.03;4924908;28;114559;-81
2023/10/08 03:16:14;;;;;;;;;;;;;;;19.80;53.06;102251.00;4934171;28;113332;-80
2023/10/08 03:18:49;;;;;;;;;;;;;;;19.78;53.05;102253.78;4942269;28;123683;-81
2023/10/08 03:21:20;;;;;;;;;;;;;;;19.78;52.97;102242.16;4947204;28;125332;-79
2023/10/08 03:23:51;;;;;;;;;;;;;;;19.76;52.95;102239.56;4948722;28;116831;-81
2023/10/08 03:29:07;;;;;;;;;;;;;;;19.72;52.95;102274.75;4952131;28;123396;-80
2023/10/08 03:34:34;;;;;;;;;;;;;;;19.67;52.98;102260.75;4936802;28;115023;-80
2023/10/08 03:37:07;;;;;;;;;;;;;;;19.64;52.89;102246.50;4917051;28;112974;-81
2023/10/08 03:40:00;;;;;;;;;;;;;;;19.63;53.03;102250.16;4949142;28;124320;-80
2023/10/08 03:42:34;;;;;;;;;;;;;;;19.60;53.08;102250.34;4952986;28;124442;-79
2023/10/08 03:45:10;;;;;;;;;;;;;;;19.57;52.99;102266.69;4949262;28;114609;-81
2023/10/08 03:47:38;;;;;;;;;;;;;;;19.55;52.98;102263.22;4951352;28;114272;-80
2023/10/08 03:50:06;;;;;;;;;;;;;;;19.52;53.13;102276.84;4944085;28;123515;-80
2023/10/08 03:52:36;;;;;;;;;;;;;;;19.51;53.10;102293.91;4958592;28;123470;-81
2023/10/08 03:55:07;;;;;;;;;;;;;;;19.51;53.17;102275.09;4937483;28;113796;-80
2023/10/08 03:57:44;;;;;;;;;;;;;;;19.49;53.13;102285.06;4949422;28;113542;-80
2023/10/08 04:00:28;;;;;;;;;;;;;;;19.48;53.20;102272.59;4948066;28;123726;-79
2023/10/08 04:03:00;;;;;;;;;;;;;;;19.46;53.15;102258.41;4953517;28;123062;-79
2023/10/08 04:05:32;;;;;;;;;;;;;;;19.45;53.22;102262.03;4946012;28;114309;-81
2023/10/08 04:10:49;;;;;;;;;;;;;;;19.44;53.15;102271.06;4949776;28;124163;-80
2023/10/08 04:13:16;;;;;;;;;;;;;;;19.43;53.03;102259.44;4945452;28;124226;-81
2023/10/08 04:15:43;;;;;;;;;;;;;;;19.43;53.20;102255.88;4948964;28;116626;-80
2023/10/08 04:18:11;;;;;;;;;;;;;;;19.39;53.19;102268.63;4950303;28;116153;-80
2023/10/08 04:20:38;;;;;;;;;;;;;;;19.37;53.13;102291.19;4957665;28;124223;-80
2023/10/08 04:23:20;;;;;;;;;;;;;;;19.35;53.13;102287.72;4947335;28;123158;-80
2023/10/08 04:25:54;;;;;;;;;;;;;;;19.33;53.14;102289.66;4948312;28;114155;-80
2023/10/08 04:28:22;;;;;;;;;;;;;;;19.32;53.23;102298.66;4930753;28;113345;-81
2023/10/08 04:30:50;;;;;;;;;;;;;;;19.30;53.24;102295.19;4916870;28;123661;-81
2023/10/08 04:33:19;;;;;;;;;;;;;;;19.30;53.25;102295.19;4930310;28;123472;-81
2023/10/08 04:35:51;;;;;;;;;;;;;;;19.30;53.24;102295.19;4932181;28;113649;-81
2023/10/08 04:38:21;;;;;;;;;;;;;;;19.31;53.21;102307.66;4932426;28;113018;-81
2023/10/08 04:40:50;;;;;;;;;;;;;;;19.31;53.33;102321.06;4949033;28;124082;-80
2023/10/08 04:43:25;;;;;;;;;;;;;;;19.31;53.28;102324.66;4931303;28;123048;-81
2023/10/08 04:46:04;;;;;;;;;;;;;;;19.30;53.30;102338.16;4949142;28;114757;-81
2023/10/08 04:48:32;;;;;;;;;;;;;;;19.30;53.30;102351.59;4938108;28;113557;-81
2023/10/08 04:51:01;;;;;;;;;;;;;;;19.30;53.40;102338.16;4956573;28;126235;-81
2023/10/08 04:53:35;;;;;;;;;;;;;;;19.31;53.30;102350.63;4949125;28;123563;-80
2023/10/08 04:56:13;;;;;;;;;;;;;;;19.32;53.29;102342.50;4944870;28;114519;-80
2023/10/08 04:58:40;;;;;;;;;;;;;;;19.33;53.37;102336.19;4950180;28;114035;-80
2023/10/08 05:17:09;;;;;;;;;;;;;;;19.31;53.43;102329.13;4931480;28;113551;-81
2023/10/08 05:30:16;;;;;;;;;;;;;;;19.22;53.35;102309.06;4937472;28;112840;-80
2023/10/08 05:35:38;;;;;;;;;;;;;;;19.17;53.33;102322.75;4949458;28;124715;-81
2023/10/08 06:13:04;;;;;;;;;;;;;;;19.11;53.51;102333.84;4933521;28;113171;-79
2023/10/08 06:15:48;;;;;;;;;;;;;;;19.11;53.51;102341.91;4932994;28;124517;-81
2023/10/08 06:18:15;;;;;;;;;;;;;;;19.11;53.68;102344.59;4934021;28;126178;-79
2023/10/08 06:20:43;;;;;;;;;;;;;;;19.11;53.68;102352.66;4934108;28;113495;-80
2023/10/08 06:23:12;;;;;;;;;;;;;;;19.10;53.55;102342.88;4931736;28;114467;-80
2023/10/08 06:25:45;;;;;;;;;;;;;;;19.10;53.52;102342.88;4932361;28;124359;-80
2023/10/08 06:28:14;;;;;;;;;;;;;;;19.12;53.81;102351.72;4930258;28;124429;-79
2023/10/08 06:30:41;;;;;;;;;;;;;;;19.14;53.53;102371.28;4930492;28;115581;-79
2023/10/08 06:33:13;;;;;;;;;;;;;;;19.15;53.60;102373.00;4934121;28;113878;-80
2023/10/08 06:35:44;;;;;;;;;;;;;;;19.16;53.61;102374.75;4950689;28;124910;-80
2023/10/08 06:38:14;;;;;;;;;;;;;;;19.16;53.73;102369.38;4949561;28;122986;-80
2023/10/08 06:40:42;;;;;;;;;;;;;;;19.17;53.65;102379.16;4933863;28;115344;-79
2023/10/08 06:43:16;;;;;;;;;;;;;;;19.18;53.64;102372.84;4933228;28;114781;-81
2023/10/08 06:45:44;;;;;;;;;;;;;;;19.19;53.69;102374.59;4950995;28;124787;-79
2023/10/08 06:48:17;;;;;;;;;;;;;;;19.18;53.70;102378.22;4951005;28;123975;-80
2023/10/08 06:50:45;;;;;;;;;;;;;;;19.21;53.65;102399.53;4949272;28;116432;-80
2023/10/08 06:53:13;;;;;;;;;;;;;;;19.23;53.73;102413.75;4939516;28;114941;-80
2023/10/08 06:55:41;;;;;;;;;;;;;;;19.25;53.63;102427.97;4933558;28;124580;-79
2023/10/08 06:58:11;;;;;;;;;;;;;;;19.24;53.71;102436.09;4944850;28;123935;-80
2023/10/08 07:00:48;;;;;;;;;;;;;;;19.22;53.63;102438.00;4936652;28;114696;-80
2023/10/08 07:03:17;;;;;;;;;;;;;;;19.20;53.56;102438.09;4924484;28;114215;-80
2023/10/08 07:05:54;;;;;;;;;;;;;;;19.17;53.64;102435.56;4930702;28;123679;-79
2023/10/08 07:08:23;;;;;;;;;;;;;;;19.16;53.71;102436.53;4930806;28;124109;-80
2023/10/08 07:10:51;;;;;;;;;;;;;;;19.15;53.76;102440.16;4933336;28;114661;-80
2023/10/08 07:13:19;;;;;;;;;;;;;;;19.18;53.63;102437.31;4932331;28;113415;-80
2023/10/08 07:15:46;;;;;;;;;;;;;;;19.21;53.94;102431.78;4932767;28;124246;-80
2023/10/08 07:18:14;;;;;;;;;;;;;;;19.24;53.73;102436.94;4930868;28;124210;-80
2023/10/08 07:20:45;;;;;;;;;;;;;;;19.24;53.86;102452.22;4931920;28;114625;-79
2023/10/08 07:23:18;;;;;;;;;;;;;;;19.23;53.70;102445.09;4921483;28;112886;-80
2023/10/08 07:25:51;;;;;;;;;;;;;;;19.20;53.80;102440.78;4950050;28;124093;-80
2023/10/08 07:28:19;;;;;;;;;;;;;;;19.16;53.88;102449.97;4917349;28;125392;-79
2023/10/08 07:30:49;;;;;;;;;;;;;;;19.09;53.96;102437.81;4936584;28;114560;-79
2023/10/08 07:33:19;;;;;;;;;;;;;;;19.06;54.18;102443.34;4939415;28;111888;-80
2023/10/08 07:35:54;;;;;;;;;;;;;;;19.01;54.25;102450.81;4944581;28;124713;-80
2023/10/08 07:38:21;;;;;;;;;;;;;;;18.99;54.26;102452.72;4913103;28;125381;-80
2023/10/08 07:40:49;;;;;;;;;;;;;;;18.98;54.42;102437.53;4953165;28;115743;-80
2023/10/08 07:43:20;;;;;;;;;;;;;;;18.97;54.45;102446.56;4943942;28;114415;-79
2023/10/08 07:45:47;;;;;;;;;;;;;;;18.97;54.48;102454.63;4946137;28;124405;-80
2023/10/08 07:48:14;;;;;;;;;;;;;;;18.98;54.54;102461.72;4944748;28;123883;-81
2023/10/08 07:50:43;;;;;;;;;;;;;;;18.99;54.30;102460.78;4942765;28;114381;-81
2023/10/08 07:53:17;;;;;;;;;;;;;;;18.98;54.46;102467.09;4934992;28;114261;-81
2023/10/08 07:55:46;;;;;;;;;;;;;;;18.96;54.40;102458.25;4956831;28;124308;-80
2023/10/08 07:58:14;;;;;;;;;;;;;;;18.98;54.55;102456.34;4926164;28;123674;-80
2023/10/08 08:00:42;;;;;;;;;;;;;;;18.98;54.70;102461.72;4946301;28;114139;-81
2023/10/08 08:03:10;;;;;;;;;;;;;;;18.96;54.75;102463.63;4930834;28;115137;-81
2023/10/08 08:05:40;;;;;;;;;;;;;;;18.97;54.84;102465.38;4943826;28;124072;-81
2023/10/08 08:08:08;;;;;;;;;;;;;;;18.97;54.84;102460.84;4950367;28;124297;-81
2023/10/08 08:10:36;;;;;;;;;;;;;;;19.00;55.02;102473.22;4941343;28;115249;-80
2023/10/08 08:13:05;;;;;;;;;;;;;;;19.01;54.92;102477.66;4929369;28;113871;-81
2023/10/08 08:15:34;;;;;;;;;;;;;;;19.00;55.09;102465.19;4931212;28;124016;-81
2023/10/08 08:18:05;;;;;;;;;;;;;;;19.02;55.23;102474.00;4947486;28;124283;-80
2023/10/08 08:20:38;;;;;;;;;;;;;;;19.02;55.43;102469.53;4955787;28;113876;-80
2023/10/08 08:23:08;;;;;;;;;;;;;;;19.02;55.42;102480.28;4951820;28;112702;-80
2023/10/08 08:25:45;;;;;;;;;;;;;;;19.01;55.38;102485.72;4949332;28;124294;-80
2023/10/08 08:28:20;;;;;;;;;;;;;;;19.00;55.45;102492.03;4934513;28;124096;-81
2023/10/08 08:30:52;;;;;;;;;;;;;;;19.00;55.53;102502.78;4933521;28;115270;-81
2023/10/08 08:33:22;;;;;;;;;;;;;;;18.99;55.60;102517.16;4949650;28;115138;-81
2023/10/08 08:36:00;;;;;;;;;;;;;;;18.98;55.73;102518.09;4950059;28;123667;-80
2023/10/08 08:38:32;;;;;;;;;;;;;;;18.96;55.63;102523.56;4954301;28;124095;-80
2023/10/08 08:41:06;;;;;;;;;;;;;;;18.99;55.63;102533.28;4947100;28;113838;-81
2023/10/08 08:43:34;;;;;;;;;;;;;;;19.01;55.62;102528.69;4936684;28;114885;-80
2023/10/08 08:46:10;;;;;;;;;;;;;;;19.04;55.78;102536.56;4949222;28;124562;-80
2023/10/08 08:48:39;;;;;;;;;;;;;;;19.04;55.78;102531.19;4937738;28;124367;-81
2023/10/08 08:51:13;;;;;;;;;;;;;;;19.02;55.73;102527.72;4947902;28;115513;-81
2023/10/08 08:53:41;;;;;;;;;;;;;;;19.03;56.07;102532.16;4949419;28;114450;-79
2023/10/08 08:56:12;;;;;;;;;;;;;;;19.04;56.27;102532.06;4948295;28;124797;-81
2023/10/08 08:58:41;;;;;;;;;;;;;;;19.05;56.03;102538.31;4937654;28;123009;-79
2023/10/08 09:01:12;;;;;;;;;;;;;;;19.03;56.25;102529.47;4930033;28;115139;-81
2023/10/08 09:03:40;;;;;;;;;;;;;;;19.02;56.32;102533.09;4928262;28;116024;-81
2023/10/08 09:06:07;;;;;;;;;;;;;;;18.99;56.32;102533.28;4949485;28;124454;-81
2023/10/08 09:08:35;;;;;;;;;;;;;;;18.97;56.46;102530.66;4949622;28;124761;-81
2023/10/08 09:11:04;;;;;;;;;;;;;;;19.00;56.43;102532.31;4953433;28;115682;-81
2023/10/08 09:13:32;;;;;;;;;;;;;;;19.04;56.46;102537.44;4940933;28;114137;-80
2023/10/08 09:16:06;;;;;;;;;;;;;;;19.08;56.50;102540.84;4939767;28;125278;-81
2023/10/08 09:18:34;;;;;;;;;;;;;;;19.11;56.37;102547.84;4951325;28;124574;-79
2023/10/08 09:21:11;;;;;;;;;;;;;;;19.11;56.50;102554.09;4937220;28;115896;-81
2023/10/08 09:23:43;;;;;;;;;;;;;;;19.10;56.25;102552.38;4941825;28;115732;-81
2023/10/08 09:26:13;;;;;;;;;;;;;;;19.11;56.43;102559.47;4951252;28;124624;-81
2023/10/08 09:28:46;;;;;;;;;;;;;;;19.10;56.23;102568.47;4948098;28;125212;-80
2023/10/08 09:31:14;;;;;;;;;;;;;;;19.10;56.39;102563.09;4932426;28;114521;-82
2023/10/08 09:33:41;;;;;;;;;;;;;;;19.06;56.43;102550.78;4952884;28;113538;-80
2023/10/08 09:36:15;;;;;;;;;;;;;;;19.03;56.44;102550.94;4951139;28;123506;-80
2023/10/08 09:38:43;;;;;;;;;;;;;;;19.02;56.50;102549.22;4907036;28;125870;-80
2023/10/08 09:41:11;;;;;;;;;;;;;;;19.03;56.61;102540.22;4950882;28;114200;-81
2023/10/08 09:43:41;;;;;;;;;;;;;;;19.04;56.47;102548.19;4951316;28;112660;-79
2023/10/08 09:46:13;;;;;;;;;;;;;;;19.06;56.67;102534.66;4961527;28;124197;-80
2023/10/08 09:48:41;;;;;;;;;;;;;;;19.08;56.50;102532.78;4934682;28;124133;-80
2023/10/08 09:51:10;;;;;;;;;;;;;;;19.11;56.51;102537.97;4934530;28;114416;-80
2023/10/08 09:53:58;;;;;;;;;;;;;;;19.12;56.32;102539.72;4942145;28;113639;-80
2023/10/08 09:56:27;;;;;;;;;;;;;;;19.15;56.49;102536.00;4922123;28;125310;-80
2023/10/08 09:58:55;;;;;;;;;;;;;;;19.16;56.40;102535.91;4933795;28;123138;-80
2023/10/08 10:01:22;;;;;;;;;;;;;;;19.21;56.56;102528.47;4940542;28;113187;-80
2023/10/08 10:03:49;;;;;;;;;;;;;;;19.29;56.40;102535.22;4950015;28;113903;-81
2023/10/08 10:06:18;;;;;;;;;;;;;;;19.35;56.40;102535.78;4935919;28;122629;-80
2023/10/08 10:08:45;;;;;;;;;;;;;;;19.44;56.49;102537.09;4948423;28;124488;-80
2023/10/08 10:11:12;;;;;;;;;;;;;;;19.53;56.39;102533.88;4922848;28;113607;-80
2023/10/08 10:13:41;;;;;;;;;;;;;;;19.63;56.39;102537.78;4917239;28;115790;-81
2023/10/08 10:16:10;;;;;;;;;;;;;;;19.72;56.36;102532.81;4934796;28;123970;-80
2023/10/08 10:18:37;;;;;;;;;;;;;;;19.82;56.45;102528.72;4932569;28;124152;-79
2023/10/08 10:21:12;;;;;;;;;;;;;;;19.89;56.39;102534.59;4933235;28;113751;-79
2023/10/08 10:23:42;;;;;;;;;;;;;;;19.99;56.31;102536.66;4937163;28;113563;-80
2023/10/08 10:26:30;;;;;;;;;;;;;;;20.07;56.13;102538.91;4946736;28;123518;-80
2023/10/08 10:29:10;;;;;;;;;;;;;;;20.15;56.01;102546.53;4945456;28;122584;-81
2023/10/08 10:31:47;;;;;;;;;;;;;;;20.17;56.06;102539.22;4936993;28;113888;-80
2023/10/08 10:34:18;;;;;;;;;;;;;;;20.21;55.98;102541.66;4945845;28;112626;-81
2023/10/08 10:36:48;;;;;;;;;;;;;;;20.25;55.83;102542.34;4937964;28;123931;-80
2023/10/08 10:39:30;;;;;;;;;;;;;;;20.29;55.91;102540.34;4950618;28;125555;-80
2023/10/08 10:42:01;;;;;;;;;;;;;;;20.31;55.74;102536.59;4944582;28;114258;-80
2023/10/08 10:44:31;;;;;;;;;;;;;;;20.32;55.67;102534.78;4943480;28;115139;-80
2023/10/08 10:52:31;;;;;;;;;;;;;;;20.46;55.92;102550.13;4951920;28;115192;-79
2023/10/08 10:55:00;;;;;;;;;;;;;;;20.49;55.71;102544.53;4945286;28;113369;-79
2023/10/08 10:57:34;;;;;;;;;;;;;;;20.52;55.66;102544.34;4934377;28;124486;-81
2023/10/08 11:00:18;;;;;;;;;;;;;;;20.53;55.43;102540.69;4935880;28;123646;-80
2023/10/08 11:02:48;;;;;;;;;;;;;;;20.51;55.47;102553.38;4946847;28;116698;-80
2023/10/08 11:05:19;;;;;;;;;;;;;;;20.50;55.54;102552.53;4937269;28;114272;-81
2023/10/08 11:07:48;;;;;;;;;;;;;;;20.54;55.59;102553.22;4945941;28;123377;-81
2023/10/08 11:10:15;;;;;;;;;;;;;;;20.59;55.51;102545.72;4922607;28;123502;-81
2023/10/08 11:12:46;;;;;;;;;;;;;;;20.65;55.53;102544.53;4936087;28;114495;-80
2023/10/08 11:15:16;;;;;;;;;;;;;;;20.69;55.59;102541.53;4938472;28;113890;-81
2023/10/08 11:17:44;;;;;;;;;;;;;;;20.72;55.51;102552.13;4940244;28;124264;-81
2023/10/08 11:20:27;;;;;;;;;;;;;;;20.78;55.61;102540.97;4938668;28;123633;-81
2023/10/08 11:22:54;;;;;;;;;;;;;;;20.86;55.55;102542.34;4936221;28;114409;-80
2023/10/08 11:25:30;;;;;;;;;;;;;;;20.94;55.63;102540.88;4925239;28;113002;-81
2023/10/08 11:28:09;;;;;;;;;;;;;;;21.06;55.53;102536.59;4946251;28;124130;-81
2023/10/08 11:30:36;;;;;;;;;;;;;;;21.16;55.64;102529.63;4918103;28;123453;-80
2023/10/08 11:33:06;;;;;;;;;;;;;;;21.26;55.58;102529.91;4943364;28;115445;-79
2023/10/08 11:35:33;;;;;;;;;;;;;;;21.37;55.58;102531.94;4949828;28;114433;-80
2023/10/08 11:38:02;;;;;;;;;;;;;;;21.43;55.39;102531.53;4933305;28;124021;-80
2023/10/08 11:40:29;;;;;;;;;;;;;;;21.46;55.21;102531.38;4942039;28;123468;-80
2023/10/08 11:42:59;;;;;;;;;;;;;;;21.45;55.02;102524.25;4931374;28;114469;-81
2023/10/08 11:45:26;;;;;;;;;;;;;;;21.43;55.07;102520.75;4934142;28;113192;-81
2023/10/08 11:47:57;;;;;;;;;;;;;;;21.42;55.14;102527.13;4941144;28;124469;-80
2023/10/08 11:50:30;;;;;;;;;;;;;;;21.40;54.88;102520.97;4942977;28;124328;-80
2023/10/08 11:53:01;;;;;;;;;;;;;;;21.37;54.95;102527.41;4939937;28;116274;-81
2023/10/08 11:55:29;;;;;;;;;;;;;;;21.35;54.86;102523.09;4945193;28;115513;-80
2023/10/08 11:57:57;;;;;;;;;;;;;;;21.34;54.99;102515.94;4939114;28;124814;-79
2023/10/08 12:00:25;;;;;;;;;;;;;;;21.35;54.95;102512.31;4936395;28;124451;-79
2023/10/08 12:03:01;;;;;;;;;;;;;;;21.36;55.04;102519.41;4932781;28;114416;-79
2023/10/08 12:05:29;;;;;;;;;;;;;;;21.35;54.96;102515.84;4931358;28;114038;-78
2023/10/08 12:07:57;;;;;;;;;;;;;;;21.35;54.93;102512.31;4920556;28;125618;-79
2023/10/08 12:10:25;;;;;;;;;;;;;;;21.33;54.87;102512.41;4943174;28;124878;-79
2023/10/08 12:12:54;;;;;;;;;;;;;;;21.33;54.98;102503.47;4946724;28;114364;-79
2023/10/08 12:15:21;;;;;;;;;;;;;;;21.32;55.01;102496.31;4933369;28;115522;-79
2023/10/08 12:20:37;;;;;;;;;;;;;;;21.34;55.09;102494.38;4938700;28;125190;-80
2023/10/08 12:23:05;;;;;;;;;;;;;;;21.36;54.98;102495.16;4934120;28;114232;-79
2023/10/08 12:25:32;;;;;;;;;;;;;;;21.42;55.19;102494.78;4932150;28;115102;-79
2023/10/08 12:28:03;;;;;;;;;;;;;;;21.49;55.13;102492.56;4935538;28;125473;-79
2023/10/08 12:30:31;;;;;;;;;;;;;;;21.53;55.02;102497.69;4937792;28;124255;-79
2023/10/08 12:32:59;;;;;;;;;;;;;;;21.60;55.11;102499.97;4944141;28;114636;-79
2023/10/08 12:35:29;;;;;;;;;;;;;;;21.64;55.03;102496.09;4938664;28;113639;-79
2023/10/08 12:37:56;;;;;;;;;;;;;;;21.70;55.09;102484.88;4965148;28;125171;-79
2023/10/08 12:40:24;;;;;;;;;;;;;;;21.75;54.97;102489.00;4960426;28;124965;-79
2023/10/08 12:42:51;;;;;;;;;;;;;;;21.78;54.97;102487.97;4931433;28;115484;-79
2023/10/08 12:45:21;;;;;;;;;;;;;;;21.72;54.68;102483.84;4968826;28;115754;-79
2023/10/08 12:47:52;;;;;;;;;;;;;;;21.68;54.71;102482.31;4952898;28;124418;-79
2023/10/08 12:50:29;;;;;;;;;;;;;;;21.66;54.87;102475.28;4952049;28;123991;-79
2023/10/08 12:52:56;;;;;;;;;;;;;;;21.69;54.92;102467.84;4948638;28;115193;-79
2023/10/08 12:55:26;;;;;;;;;;;;;;;21.70;54.83;102463.31;4934099;28;113624;-79
2023/10/08 12:57:55;;;;;;;;;;;;;;;21.70;54.82;102468.72;4933421;28;126472;-79
2023/10/08 13:00:23;;;;;;;;;;;;;;;21.70;54.67;102452.53;4934893;28;123525;-79
2023/10/08 13:02:53;;;;;;;;;;;;;;;21.68;54.72;102454.47;4938971;28;114067;-79
2023/10/08 13:05:27;;;;;;;;;;;;;;;21.68;54.71;102451.78;4927056;28;114865;-79
2023/10/08 13:07:55;;;;;;;;;;;;;;;21.69;54.85;102450.81;4934476;28;124639;-79
2023/10/08 13:10:22;;;;;;;;;;;;;;;21.70;54.83;102447.13;4942075;28;124884;-79
2023/10/08 13:12:49;;;;;;;;;;;;;;;21.72;54.81;102439.84;4941481;28;114866;-79
2023/10/08 13:15:17;;;;;;;;;;;;;;;21.72;54.61;102439.84;4942387;28;112665;-79
2023/10/08 13:17:45;;;;;;;;;;;;;;;21.71;54.79;102432.69;4941317;28;123599;-79
2023/10/08 13:20:12;;;;;;;;;;;;;;;21.70;54.79;102425.56;4933391;28;124273;-79
2023/10/08 13:22:39;;;;;;;;;;;;;;;21.71;54.76;102421.91;4946642;28;114814;-79
2023/10/08 13:25:07;;;;;;;;;;;;;;;21.70;54.82;102412.97;4917743;28;113458;-79
2023/10/08 13:27:37;;;;;;;;;;;;;;;21.73;54.87;102409.19;4932952;28;125322;-79
2023/10/08 13:30:06;;;;;;;;;;;;;;;21.78;54.86;102415.16;4934195;28;123290;-79
2023/10/08 13:32:35;;;;;;;;;;;;;;;21.81;54.76;102412.22;4935337;28;114811;-79
2023/10/08 13:35:07;;;;;;;;;;;;;;;21.85;55.02;102405.66;4952401;28;113608;-79
2023/10/08 13:37:35;;;;;;;;;;;;;;;21.91;54.87;102410.63;4952356;28;123971;-79
2023/10/08 13:40:02;;;;;;;;;;;;;;;21.97;54.97;102399.41;4944585;28;124176;-79
2023/10/08 13:42:29;;;;;;;;;;;;;;;22.02;54.68;102398.22;4935791;28;115045;-79
2023/10/08 13:44:59;;;;;;;;;;;;;;;22.03;54.82;102405.38;4936540;28;113767;-79
2023/10/08 13:47:28;;;;;;;;;;;;;;;22.06;54.71;102399.78;4917270;28;124990;-79
2023/10/08 13:49:58;;;;;;;;;;;;;;;22.07;54.71;102396.09;4919131;28;123463;-79
2023/10/08 13:52:26;;;;;;;;;;;;;;;22.08;54.58;102392.44;4933190;28;113372;-80
2023/10/08 13:54:53;;;;;;;;;;;;;;;22.08;54.62;102392.44;4947231;28;114501;-79
2023/10/08 13:57:20;;;;;;;;;;;;;;;22.07;54.50;102385.28;4936327;28;123847;-78
2023/10/08 13:59:48;;;;;;;;;;;;;;;22.07;54.64;102385.28;4936824;28;125270;-79
2023/10/08 14:02:15;;;;;;;;;;;;;;;22.11;54.76;102379.59;4931105;28;114288;-79
2023/10/08 14:04:43;;;;;;;;;;;;;;;22.16;54.88;102384.66;4954502;28;113959;-79